• Join FlightAware (Why Join?)
  • Login
  • US Flag 
07:02PM EST


 

Airport Tracker/Info


-or-


 

Live Flight TrackerFlight Track Log ✈ CSN3252 ✈ 23-May-2013 ✈ ZSSS / SHA - ZGKL / KWL

Flight Track Log - Related Links

Times and Time Zones

All times are in EDT time to prevent confusion due to time zone crossing. See the CSN3252 flight status page for this flight to view local times or setup timezone preferences in your user account.

Time Position Orientation Groundspeed Altitude Reporting Facility
EDT Latitude Longitude Course Direction KTS MPH feet Rate Location/Type
08:08AM 31.1429 121.2168 242° Southwest  Level Estimated
08:09AM 31.0879 121.0974 242° Southwest  Level Estimated
08:10AM 31.0327 120.9781 242° Southwest  Level Estimated
08:11AM 30.9774 120.8590 242° Southwest  Level Estimated
08:12AM 30.9220 120.7401 242° Southwest  Level Estimated
08:13AM 30.8665 120.6212 241° Southwest  Level Estimated
08:14AM 30.8109 120.5025 241° Southwest  Level Estimated
08:15AM 30.7552 120.3840 241° Southwest  Level Estimated
08:16AM 30.6994 120.2656 241° Southwest  Level Estimated
08:17AM 30.6435 120.1473 241° Southwest  Level Estimated
08:18AM 30.5875 120.0291 241° Southwest  Level Estimated
08:19AM 30.5313 119.9111 241° Southwest  Level Estimated
08:20AM 30.4751 119.7933 241° Southwest  Level Estimated
08:21AM 30.4187 119.6755 241° Southwest  Level Estimated
08:22AM 30.3622 119.5579 241° Southwest  Level Estimated
08:23AM 30.3057 119.4404 241° Southwest  Level Estimated
08:24AM 30.2490 119.3231 241° Southwest  Level Estimated
08:25AM 30.1922 119.2059 241° Southwest  Level Estimated
08:26AM 30.1354 119.0889 241° Southwest  Level Estimated
08:27AM 30.0784 118.9719 241° Southwest  Level Estimated
08:28AM 30.0213 118.8551 241° Southwest  Level Estimated
08:29AM 29.9641 118.7385 241° Southwest  Level Estimated
08:30AM 29.9068 118.6220 240° Southwest  Level Estimated
08:31AM 29.8494 118.5056 240° Southwest  Level Estimated
08:32AM 29.7920 118.3893 240° Southwest  Level Estimated
08:33AM 29.7344 118.2732 240° Southwest  Level Estimated
08:34AM 29.6767 118.1572 240° Southwest  Level Estimated
08:35AM 29.6189 118.0414 240° Southwest  Level Estimated
08:36AM 29.5610 117.9257 240° Southwest  Level Estimated
08:37AM 29.5030 117.8101 240° Southwest  Level Estimated
08:38AM 29.4449 117.6946 240° Southwest  Level Estimated
08:39AM 29.3867 117.5793 240° Southwest  Level Estimated
08:40AM 29.3284 117.4641 240° Southwest  Level Estimated
08:41AM 29.2700 117.3490 240° Southwest  Level Estimated
08:42AM 29.2115 117.2341 240° Southwest  Level Estimated
08:43AM 29.1529 117.1193 240° Southwest  Level Estimated
08:44AM 29.0942 117.0046 240° Southwest  Level Estimated
08:45AM 29.0354 116.8901 240° Southwest  Level Estimated
08:46AM 28.9765 116.7757 240° Southwest  Level Estimated
08:47AM 28.9175 116.6614 239° Southwest  Level Estimated
08:48AM 28.8585 116.5473 239° Southwest  Level Estimated
08:49AM 28.7993 116.4333 239° Southwest  Level Estimated
08:50AM 28.7400 116.3194 239° Southwest  Level Estimated
08:51AM 28.6807 116.2056 239° Southwest  Level Estimated
08:52AM 28.6212 116.0920 239° Southwest  Level Estimated
08:53AM 28.5617 115.9785 239° Southwest  Level Estimated
08:54AM 28.5020 115.8651 239° Southwest  Level Estimated
08:55AM 28.4423 115.7519 239° Southwest  Level Estimated
08:56AM 28.3824 115.6388 239° Southwest  Level Estimated
08:57AM 28.3225 115.5258 239° Southwest  Level Estimated
08:58AM 28.2625 115.4129 239° Southwest  Level Estimated
08:59AM 28.2024 115.3002 239° Southwest  Level Estimated
09:00AM 28.1422 115.1876 239° Southwest  Level Estimated
09:01AM 28.0819 115.0751 239° Southwest  Level Estimated
09:02AM 28.0215 114.9628 239° Southwest  Level Estimated
09:03AM 27.9610 114.8505 239° Southwest  Level Estimated
09:04AM 27.9004 114.7384 239° Southwest  Level Estimated
09:05AM 27.8398 114.6265 239° Southwest  Level Estimated
09:06AM 27.7790 114.5146 238° Southwest  Level Estimated
09:07AM 27.7182 114.4029 238° Southwest  Level Estimated
09:08AM 27.6572 114.2913 238° Southwest  Level Estimated
09:09AM 27.5962 114.1798 238° Southwest  Level Estimated
09:10AM 27.5351 114.0685 238° Southwest  Level Estimated
09:11AM 27.4739 113.9573 238° Southwest  Level Estimated
09:12AM 27.4126 113.8462 238° Southwest  Level Estimated
09:13AM 27.3513 113.7352 238° Southwest  Level Estimated
09:14AM 27.2898 113.6243 238° Southwest  Level Estimated
09:15AM 27.2283 113.5136 238° Southwest  Level Estimated
09:16AM 27.1666 113.4030 238° Southwest  Level Estimated
09:17AM 27.1049 113.2925 238° Southwest  Level Estimated
09:18AM 27.0431 113.1821 238° Southwest  Level Estimated
09:19AM 26.9812 113.0719 238° Southwest  Level Estimated
09:20AM 26.9192 112.9617 238° Southwest  Level Estimated
09:21AM 26.8571 112.8518 238° Southwest  Level Estimated
09:22AM 26.7950 112.7419 238° Southwest  Level Estimated
09:23AM 26.7327 112.6321 238° Southwest  Level Estimated
09:24AM 26.6704 112.5225 238° Southwest  Level Estimated
09:25AM 26.6080 112.4129 238° Southwest  Level Estimated
09:26AM 26.5455 112.3036 237° Southwest  Level Estimated
09:27AM 26.4830 112.1943 237° Southwest  Level Estimated
09:28AM 26.4203 112.0851 237° Southwest  Level Estimated
09:29AM 26.3576 111.9761 237° Southwest  Level Estimated
09:30AM 26.2947 111.8671 237° Southwest  Level Estimated
09:31AM 26.2318 111.7583 237° Southwest  Level Estimated
09:32AM 26.1689 111.6496 237° Southwest  Level Estimated
09:33AM 26.1058 111.5411 237° Southwest  Level Estimated
09:34AM 26.0426 111.4326 237° Southwest  Level Estimated
09:35AM 25.9794 111.3243 237° Southwest  Level Estimated
09:36AM 25.9161 111.2160 237° Southwest  Level Estimated
09:37AM 25.8527 111.1079 237° Southwest  Level Estimated
09:38AM 25.7892 110.9999 237° Southwest  Level Estimated
09:39AM 25.7257 110.8921 237° Southwest  Level Estimated
09:40AM 25.6621 110.7843 237° Southwest  Level Estimated
09:41AM 25.5984 110.6767 237° Southwest  Level Estimated
09:42AM 25.5346 110.5691 237° Southwest  Level Estimated
09:43AM 25.4707 110.4617 237° Southwest  Level Estimated
09:44AM 25.4068 110.3544 237° Southwest  Level Estimated
09:45AM 25.3428 110.2472 237° Southwest  Level Estimated
09:46AM 25.2787 110.1401 237° Southwest  Level Estimated
09:47AM 25.2181 110.0392 236° Southwest  Level Estimated
09:48AM 25.2181 110.0392 214° Southwest  Level Estimated
09:49AM 25.2181 110.0392 214° Southwest  Level Estimated
09:50AM 25.2181 110.0392 214° Southwest  Level Estimated
09:51AM 25.2181 110.0392 214° Southwest  Level Estimated
09:52AM 25.2181 110.0392 214° Southwest  Level Estimated
09:53AM 25.2181 110.0392 214° Southwest  Level Estimated
09:54AM 25.2181 110.0392 214° Southwest  Level Estimated
09:55AM 25.2181 110.0392 214° Southwest  Level Estimated
09:56AM 25.2181 110.0392 214° Southwest  Level Estimated
09:57AM 25.2181 110.0392 214° Southwest  Level Estimated
09:58AM 25.2181 110.0392 214° Southwest  Level Estimated
09:59AM 25.2181 110.0392 214° Southwest  Level Estimated
10:00AM 25.2181 110.0392 214° Southwest  Level Estimated
10:01AM 25.2181 110.0392 214° Southwest  Level Estimated